Time,TemperatureF,DewpointF,PressureIn,WindDirection,WindDirectionDegrees,WindSpeedMPH,WindSpeedGustMPH,Humidity,HourlyPrecipIn,Conditions,Clouds,dailyrainin,SoftwareType,DateUTC
2013-10-30 00:13:00,64.0,39.0,29.72,SSW,194,2.0,13.0,40,0.00,,,0.00,,2013-10-30 05:13:00,
2013-10-30 00:22:00,64.0,39.0,29.72,SSW,194,2.0,13.0,40,0.00,,,0.00,,2013-10-30 05:22:00,
2013-10-30 00:43:00,65.0,41.0,29.70,SSW,198,4.0,16.0,42,0.00,,,0.00,,2013-10-30 05:43:00,
2013-10-30 00:53:00,65.0,41.0,29.70,SSW,198,4.0,16.0,42,0.00,,,0.00,,2013-10-30 05:53:00,
2013-10-30 01:13:00,64.0,44.0,29.72,SSE,160,3.0,12.0,49,0.00,,,0.00,,2013-10-30 06:13:00,
2013-10-30 01:22:00,64.0,44.0,29.72,SSE,160,3.0,12.0,49,0.00,,,0.00,,2013-10-30 06:22:00,
2013-10-30 01:42:00,62.0,48.0,29.71,SSE,155,2.0,10.0,60,0.00,,,0.00,,2013-10-30 06:42:00,
2013-10-30 01:53:00,62.0,48.0,29.71,SSE,155,2.0,10.0,60,0.00,,,0.00,,2013-10-30 06:53:00,
2013-10-30 02:12:00,61.0,50.0,29.71,SE,133,5.0,7.0,68,0.00,,,0.00,,2013-10-30 07:12:00,
2013-10-30 02:22:00,61.0,50.0,29.71,SE,133,5.0,7.0,68,0.00,,,0.00,,2013-10-30 07:22:00,
2013-10-30 02:42:00,62.0,53.0,29.68,SSE,152,5.0,12.0,72,0.00,,,0.00,,2013-10-30 07:42:00,
2013-10-30 02:52:00,62.0,53.0,29.68,SSE,152,5.0,12.0,72,0.00,,,0.00,,2013-10-30 07:52:00,
2013-10-30 03:12:00,61.0,54.0,29.70,SSE,150,2.0,12.0,77,0.00,,,0.00,,2013-10-30 08:12:00,
2013-10-30 03:22:00,60.0,54.0,29.70,SE,134,0.0,7.0,80,0.00,,,0.00,,2013-10-30 08:22:00,
2013-10-30 03:32:00,60.0,54.0,29.70,SE,134,0.0,7.0,80,0.00,,,0.00,,2013-10-30 08:32:00,
2013-10-30 03:42:00,60.0,54.0,29.70,SE,134,0.0,7.0,80,0.00,,,0.00,,2013-10-30 08:42:00,
2013-10-30 03:52:00,57.0,51.0,29.71,SE,134,1.0,3.0,79,0.00,,,0.00,,2013-10-30 08:52:00,
2013-10-30 04:02:00,57.0,51.0,29.71,SE,134,1.0,3.0,79,0.00,,,0.00,,2013-10-30 09:02:00,
2013-10-30 04:11:00,57.0,51.0,29.71,SE,134,1.0,3.0,79,0.00,,,0.00,,2013-10-30 09:11:00,
2013-10-30 04:22:00,54.0,47.0,29.72,SE,134,0.0,2.0,78,0.00,,,0.00,,2013-10-30 09:22:00,
2013-10-30 04:33:00,54.0,47.0,29.72,SE,134,0.0,2.0,78,0.00,,,0.00,,2013-10-30 09:33:00,
2013-10-30 04:43:00,54.0,47.0,29.72,SE,134,0.0,2.0,78,0.00,,,0.00,,2013-10-30 09:43:00,
2013-10-30 04:54:00,52.0,44.0,29.74,SE,134,1.0,2.0,75,0.00,,,0.00,,2013-10-30 09:54:00,
2013-10-30 05:03:00,52.0,44.0,29.74,SE,134,1.0,2.0,75,0.00,,,0.00,,2013-10-30 10:03:00,
2013-10-30 05:13:00,52.0,44.0,29.74,SE,134,1.0,2.0,75,0.00,,,0.00,,2013-10-30 10:13:00,
2013-10-30 05:23:00,51.0,42.0,29.74,SE,134,0.0,3.0,72,0.00,,,0.00,,2013-10-30 10:23:00,
2013-10-30 05:33:00,51.0,42.0,29.74,SE,134,0.0,3.0,72,0.00,,,0.00,,2013-10-30 10:33:00,
2013-10-30 05:43:00,51.0,42.0,29.74,SE,134,0.0,3.0,72,0.00,,,0.00,,2013-10-30 10:43:00,
2013-10-30 05:53:00,52.0,39.0,29.77,SE,134,0.0,3.0,61,0.00,,,0.00,,2013-10-30 10:53:00,
2013-10-30 06:02:00,52.0,39.0,29.77,SE,134,0.0,3.0,61,0.00,,,0.00,,2013-10-30 11:02:00,
2013-10-30 06:12:00,52.0,39.0,29.77,SE,134,0.0,3.0,61,0.00,,,0.00,,2013-10-30 11:12:00,
2013-10-30 06:22:00,58.0,36.0,29.74,SSW,209,1.0,5.0,43,0.00,,,0.00,,2013-10-30 11:22:00,
2013-10-30 06:33:00,58.0,36.0,29.74,SSW,209,1.0,5.0,43,0.00,,,0.00,,2013-10-30 11:33:00,
2013-10-30 06:42:00,58.0,36.0,29.74,SSW,209,1.0,5.0,43,0.00,,,0.00,,2013-10-30 11:42:00,
2013-10-30 06:52:00,63.0,36.0,29.73,WNW,291,2.0,8.0,37,0.00,,,0.00,,2013-10-30 11:52:00,
2013-10-30 07:01:00,63.0,36.0,29.73,WNW,291,2.0,8.0,37,0.00,,,0.00,,2013-10-30 12:01:00,
2013-10-30 07:12:00,63.0,36.0,29.73,WNW,291,2.0,8.0,37,0.00,,,0.00,,2013-10-30 12:12:00,
2013-10-30 07:22:00,63.0,41.0,29.72,WSW,245,6.0,13.0,44,0.00,,,0.00,,2013-10-30 12:22:00,
2013-10-30 07:32:00,63.0,41.0,29.72,WSW,245,6.0,13.0,44,0.00,,,0.00,,2013-10-30 12:32:00,
2013-10-30 07:42:00,63.0,41.0,29.72,WSW,245,6.0,13.0,44,0.00,,,0.00,,2013-10-30 12:42:00,
2013-10-30 07:52:00,62.0,39.0,29.80,WNW,301,0.0,8.0,43,0.00,,,0.00,,2013-10-30 12:52:00,
2013-10-30 08:11:00,62.0,39.0,29.80,WNW,301,0.0,8.0,43,0.00,,,0.00,,2013-10-30 13:11:00,
2013-10-30 08:22:00,59.0,39.0,29.81,WNW,301,0.0,1.0,48,0.00,,,0.00,,2013-10-30 13:22:00,
2013-10-30 08:42:00,59.0,39.0,29.81,WNW,301,0.0,1.0,48,0.00,,,0.00,,2013-10-30 13:42:00,
2013-10-30 08:52:00,58.0,40.0,29.87,NW,318,0.0,3.0,51,0.00,,,0.00,,2013-10-30 13:52:00,
2013-10-30 09:02:00,58.0,40.0,29.87,NW,318,0.0,3.0,51,0.00,,,0.00,,2013-10-30 14:02:00,
2013-10-30 09:11:00,58.0,40.0,29.87,NW,318,0.0,3.0,51,0.00,,,0.00,,2013-10-30 14:11:00,
2013-10-30 09:21:00,59.0,37.0,29.88,NW,318,1.0,3.0,44,0.00,,,0.00,,2013-10-30 14:21:00,
2013-10-30 09:32:00,59.0,37.0,29.88,NW,318,1.0,3.0,44,0.00,,,0.00,,2013-10-30 14:32:00,
2013-10-30 09:42:00,59.0,37.0,29.88,NW,318,1.0,3.0,44,0.00,,,0.00,,2013-10-30 14:42:00,
2013-10-30 09:52:00,63.0,38.0,29.78,West,261,3.0,7.0,39,0.00,,,0.00,,2013-10-30 14:52:00,
2013-10-30 10:02:00,63.0,38.0,29.78,West,261,3.0,7.0,39,0.00,,,0.00,,2013-10-30 15:02:00,
2013-10-30 10:11:00,63.0,38.0,29.78,West,261,3.0,7.0,39,0.00,,,0.00,,2013-10-30 15:11:00,
2013-10-30 10:22:00,64.0,38.0,29.79,WSW,244,5.0,12.0,38,0.00,,,0.00,,2013-10-30 15:22:00,
2013-10-30 10:33:00,64.0,38.0,29.79,WSW,244,5.0,12.0,38,0.00,,,0.00,,2013-10-30 15:33:00,
2013-10-30 10:43:00,64.0,38.0,29.79,WSW,244,5.0,12.0,38,0.00,,,0.00,,2013-10-30 15:43:00,
2013-10-30 10:54:00,64.0,39.0,29.81,WNW,287,5.0,14.0,40,0.00,,,0.00,,2013-10-30 15:54:00,
2013-10-30 11:03:00,64.0,39.0,29.81,WNW,287,5.0,14.0,40,0.00,,,0.00,,2013-10-30 16:03:00,
2013-10-30 11:12:00,64.0,39.0,29.81,WNW,287,5.0,14.0,40,0.00,,,0.00,,2013-10-30 16:12:00,
2013-10-30 11:23:00,64.0,40.0,29.80,West,278,3.0,12.0,41,0.00,,,0.00,,2013-10-30 16:23:00,
2013-10-30 11:33:00,64.0,40.0,29.80,West,278,3.0,12.0,41,0.00,,,0.00,,2013-10-30 16:33:00,
2013-10-30 11:43:00,64.0,40.0,29.80,West,278,3.0,12.0,41,0.00,,,0.00,,2013-10-30 16:43:00,
2013-10-30 11:53:00,64.0,40.0,29.78,WNW,289,2.0,8.0,42,0.00,,,0.00,,2013-10-30 16:53:00,
2013-10-30 12:02:00,64.0,40.0,29.78,WNW,289,2.0,8.0,42,0.00,,,0.00,,2013-10-30 17:02:00,
2013-10-30 12:12:00,64.0,40.0,29.78,WNW,289,2.0,8.0,42,0.00,,,0.00,,2013-10-30 17:12:00,
2013-10-30 12:23:00,64.0,42.0,29.76,SW,226,0.0,10.0,44,0.00,,,0.00,,2013-10-30 17:23:00,
2013-10-30 12:33:00,64.0,42.0,29.76,SW,226,0.0,10.0,44,0.00,,,0.00,,2013-10-30 17:33:00,
2013-10-30 12:42:00,64.0,42.0,29.76,SW,226,0.0,10.0,44,0.00,,,0.00,,2013-10-30 17:42:00,
2013-10-30 12:52:00,65.0,43.0,29.76,WSW,257,2.0,8.0,45,0.00,,,0.00,,2013-10-30 17:52:00,
2013-10-30 13:02:00,65.0,43.0,29.76,WSW,257,2.0,8.0,45,0.00,,,0.00,,2013-10-30 18:02:00,
2013-10-30 13:12:00,65.0,43.0,29.76,WSW,257,2.0,8.0,45,0.00,,,0.00,,2013-10-30 18:12:00,
2013-10-30 13:22:00,65.0,41.0,29.75,WSW,244,5.0,12.0,42,0.00,,,0.00,,2013-10-30 18:22:00,
2013-10-30 13:32:00,65.0,41.0,29.75,WSW,244,5.0,12.0,42,0.00,,,0.00,,2013-10-30 18:32:00,
2013-10-30 13:42:00,65.0,41.0,29.75,WSW,244,5.0,12.0,42,0.00,,,0.00,,2013-10-30 18:42:00,
2013-10-30 13:52:00,67.0,41.0,29.72,WSW,248,6.0,14.0,38,0.00,,,0.00,,2013-10-30 18:52:00,
2013-10-30 14:01:00,67.0,41.0,29.72,WSW,248,6.0,14.0,38,0.00,,,0.00,,2013-10-30 19:01:00,
2013-10-30 14:11:00,67.0,41.0,29.72,WSW,248,6.0,14.0,38,0.00,,,0.00,,2013-10-30 19:11:00,
2013-10-30 14:21:00,67.0,43.0,29.71,WSW,258,6.0,18.0,42,0.00,,,0.00,,2013-10-30 19:21:00,
2013-10-30 14:32:00,67.0,43.0,29.71,WSW,258,6.0,18.0,42,0.00,,,0.00,,2013-10-30 19:32:00,
2013-10-30 14:42:00,67.0,43.0,29.71,WSW,258,6.0,18.0,42,0.00,,,0.00,,2013-10-30 19:42:00,
2013-10-30 14:52:00,65.0,43.0,29.73,South,190,5.0,13.0,44,0.00,,,0.00,,2013-10-30 19:52:00,
2013-10-30 15:02:00,65.0,43.0,29.73,South,190,5.0,13.0,44,0.00,,,0.00,,2013-10-30 20:02:00,
2013-10-30 15:12:00,65.0,43.0,29.73,South,190,5.0,13.0,44,0.00,,,0.00,,2013-10-30 20:12:00,
2013-10-30 15:22:00,63.0,42.0,29.74,SSE,154,6.0,12.0,47,0.00,,,0.00,,2013-10-30 20:22:00,
2013-10-30 15:32:00,63.0,42.0,29.74,SSE,154,6.0,12.0,47,0.00,,,0.00,,2013-10-30 20:32:00,
2013-10-30 15:42:00,63.0,42.0,29.74,SSE,154,6.0,12.0,47,0.00,,,0.00,,2013-10-30 20:42:00,
2013-10-30 15:52:00,61.0,47.0,29.76,SW,224,3.0,13.0,61,0.00,,,0.00,,2013-10-30 20:52:00,
2013-10-30 16:01:00,61.0,47.0,29.76,SW,224,3.0,13.0,61,0.00,,,0.00,,2013-10-30 21:01:00,
2013-10-30 16:12:00,61.0,47.0,29.76,SW,224,3.0,13.0,61,0.00,,,0.00,,2013-10-30 21:12:00,
2013-10-30 16:21:00,59.0,47.0,29.75,SSE,152,3.0,9.0,65,0.01,,,0.01,,2013-10-30 21:21:00,
2013-10-30 16:33:00,59.0,47.0,29.75,SSE,152,3.0,9.0,65,0.01,,,0.01,,2013-10-30 21:33:00,
2013-10-30 16:43:00,59.0,47.0,29.75,SSE,152,3.0,9.0,65,0.01,,,0.01,,2013-10-30 21:43:00,
2013-10-30 16:53:00,60.0,46.0,29.75,SSW,213,2.0,9.0,59,0.01,,,0.01,,2013-10-30 21:53:00,
2013-10-30 17:04:00,60.0,46.0,29.75,SSW,213,2.0,9.0,59,0.01,,,0.01,,2013-10-30 22:04:00,
2013-10-30 17:13:00,60.0,46.0,29.75,SSW,213,2.0,9.0,59,0.01,,,0.01,,2013-10-30 22:13:00,
2013-10-30 17:23:00,60.0,46.0,29.75,SSW,213,2.0,9.0,59,0.01,,,0.01,,2013-10-30 22:23:00,
2013-10-30 17:43:00,61.0,46.0,29.75,West,274,3.0,17.0,57,0.00,,,0.01,,2013-10-30 22:43:00,
2013-10-30 17:54:00,61.0,46.0,29.75,West,274,3.0,17.0,57,0.00,,,0.01,,2013-10-30 22:54:00,
2013-10-30 18:12:00,59.0,47.0,29.70,WSW,244,5.0,16.0,64,0.00,,,0.01,,2013-10-30 23:12:00,
2013-10-30 18:23:00,59.0,47.0,29.70,WSW,244,5.0,16.0,64,0.00,,,0.01,,2013-10-30 23:23:00,
2013-10-30 18:42:00,58.0,46.0,29.70,West,274,3.0,13.0,65,0.00,,,0.01,,2013-10-30 23:42:00,
2013-10-30 18:53:00,58.0,46.0,29.70,West,274,3.0,13.0,65,0.00,,,0.01,,2013-10-30 23:53:00,
2013-10-30 19:11:00,57.0,47.0,29.71,SW,233,5.0,14.0,69,0.00,,,0.01,,2013-10-31 00:11:00,
2013-10-30 19:22:00,57.0,47.0,29.71,SW,233,5.0,14.0,69,0.00,,,0.01,,2013-10-31 00:22:00,
2013-10-30 19:42:00,59.0,46.0,29.68,WSW,244,9.0,21.0,62,0.00,,,0.01,,2013-10-31 00:42:00,
2013-10-30 19:52:00,59.0,46.0,29.68,WSW,244,9.0,21.0,62,0.00,,,0.01,,2013-10-31 00:52:00,
2013-10-30 20:12:00,59.0,46.0,29.69,SW,219,10.0,24.0,63,0.00,,,0.01,,2013-10-31 01:12:00,
2013-10-30 20:22:00,59.0,46.0,29.69,SW,219,10.0,24.0,63,0.00,,,0.01,,2013-10-31 01:22:00,
2013-10-30 20:42:00,58.0,46.0,29.70,SE,126,9.0,22.0,65,0.00,,,0.01,,2013-10-31 01:42:00,
2013-10-30 20:53:00,58.0,46.0,29.70,SE,126,9.0,22.0,65,0.00,,,0.01,,2013-10-31 01:53:00,
2013-10-30 21:12:00,58.0,46.0,29.69,South,172,8.0,21.0,64,0.00,,,0.01,,2013-10-31 02:12:00,
2013-10-30 21:22:00,58.0,46.0,29.69,South,172,8.0,21.0,64,0.00,,,0.01,,2013-10-31 02:22:00,
2013-10-30 22:12:00,59.0,46.0,29.66,WSW,248,7.0,18.0,61,0.00,,,0.01,,2013-10-31 03:12:00,
2013-10-30 22:22:00,59.0,46.0,29.66,WSW,248,7.0,18.0,61,0.00,,,0.01,,2013-10-31 03:22:00,
2013-10-30 22:44:00,58.0,45.0,29.67,SW,220,6.0,18.0,63,0.00,,,0.01,,2013-10-31 03:44:00,
2013-10-30 22:55:00,58.0,45.0,29.67,SW,220,6.0,18.0,63,0.00,,,0.01,,2013-10-31 03:55:00,
2013-10-30 23:14:00,58.0,45.0,29.68,WSW,250,7.0,20.0,61,0.00,,,0.01,,2013-10-31 04:14:00,
2013-10-30 23:24:00,58.0,45.0,29.68,WSW,250,7.0,20.0,61,0.00,,,0.01,,2013-10-31 04:24:00,
2013-10-30 23:43:00,58.0,44.0,29.69,SSW,202,7.0,21.0,60,0.00,,,0.01,,2013-10-31 04:43:00,
2013-10-30 23:54:00,58.0,44.0,29.69,SSW,202,7.0,21.0,60,0.00,,,0.01,,2013-10-31 04:54:00,